METAR Data
IDs: Format: Raw Decoded Include TAF

Data at: 2134 UTC 23 Oct 2021

KCCB 232115Z AUTO 25007KT 10SM BKN027 OVC040 17/13 A2989 RMK AO2